Bucks Bridge, New York
Current Conditions -  °F | °C
As of 4:53 PM on Saturday 20 Dec 2014 (Local Time) from KMSS Reporting Station
Scattered Clouds Scattered Clouds  
Wind Chill: -12°   Ceiling: Unl
Heat Index: -7°   Visibility: 10mi
Dew Point: -10°   Wind: 7mph
Humidity: 81%   Direction: 60°ENE
Pressure: 30.32"   Gusts: NA
Location:  44.5792°N, 75.1592°W
Report Text: KMSS 202153Z AUTO 06006KT 10SM SCT100 M07/M10 A3032 RMK AO2 SLP275 T10721100
Loading
Personal Weather Stations






























Interactive Weather Map New forecast layout! Learn more

10-Day Weather Forecast

Advertisements
Track Severe Weather on mobile